createdAt,value
2022-10-23T00:02:02.671Z,99164.88
2022-10-23T00:04:31.341Z,99167.66
2022-10-23T00:07:00.131Z,99168.94
2022-10-23T00:09:28.761Z,99172.47
2022-10-23T00:11:58.769Z,99175.84
2022-10-23T00:14:27.620Z,99162.34
2022-10-23T00:16:56.238Z,99161.06
2022-10-23T00:19:25.041Z,99157.38
2022-10-23T00:21:53.884Z,99158.28
2022-10-23T00:24:22.570Z,99162.09
2022-10-23T00:26:51.838Z,99160.84
2022-10-23T00:29:21.889Z,99163.38
2022-10-23T00:31:50.561Z,99161.16
2022-10-23T00:34:19.952Z,99153.13
2022-10-23T00:36:48.607Z,99150.00
2022-10-23T00:39:17.281Z,99154.53
2022-10-23T00:41:46.121Z,99157.31
2022-10-23T00:45:06.644Z,99153.59
2022-10-23T00:47:36.939Z,99152.41
2022-10-23T00:50:06.907Z,99154.63
2022-10-23T00:52:42.050Z,99157.28
2022-10-23T00:55:11.744Z,99168.81
2022-10-23T00:57:45.829Z,99162.84
2022-10-23T01:00:20.726Z,99156.00
2022-10-23T01:02:51.577Z,99153.78
2022-10-23T01:05:26.867Z,99155.75
2022-10-23T01:08:03.704Z,99149.69
2022-10-23T01:10:41.173Z,99158.34
2022-10-23T01:13:22.602Z,99164.16
2022-10-23T01:15:57.872Z,99169.63
2022-10-23T01:18:37.386Z,99157.63
2022-10-23T01:21:13.638Z,99160.00
2022-10-23T01:24:12.584Z,99162.41
2022-10-23T01:27:01.880Z,99160.31
2022-10-23T01:29:39.317Z,99165.28
2022-10-23T01:32:17.011Z,99163.41
2022-10-23T01:34:53.134Z,99158.75
2022-10-23T01:37:30.636Z,99158.94
2022-10-23T01:40:10.672Z,99161.78
2022-10-23T01:42:49.404Z,99158.06
2022-10-23T01:45:29.335Z,99158.78
2022-10-23T01:48:00.545Z,99158.19
2022-10-23T01:50:32.762Z,99162.13
2022-10-23T01:53:06.369Z,99159.94
2022-10-23T01:55:35.708Z,99155.72
2022-10-23T01:58:08.781Z,99154.81
2022-10-23T02:00:46.392Z,99152.75
2022-10-23T02:03:19.720Z,99149.34
2022-10-23T02:05:48.820Z,99147.69
2022-10-23T02:08:17.586Z,99148.44
2022-10-23T02:10:56.928Z,99144.25
2022-10-23T02:13:35.133Z,99139.34
2022-10-23T02:16:17.706Z,99149.34
2022-10-23T02:18:56.789Z,99146.78
2022-10-23T02:21:35.618Z,99142.81
2022-10-23T02:24:10.850Z,99138.84
2022-10-23T02:26:52.889Z,99130.25
2022-10-23T02:29:32.216Z,99130.72
2022-10-23T02:32:03.425Z,99128.63
2022-10-23T02:34:32.041Z,99135.09
2022-10-23T02:37:00.667Z,99137.16
2022-10-23T02:39:30.406Z,99141.25
2022-10-23T02:42:11.273Z,99134.28
2022-10-23T02:44:58.051Z,99128.84
2022-10-23T02:47:46.155Z,99133.00
2022-10-23T02:50:32.687Z,99123.78
2022-10-23T02:53:14.130Z,99137.63
2022-10-23T02:55:59.083Z,99128.09
2022-10-23T02:58:38.585Z,99135.53
2022-10-23T03:01:14.024Z,99140.53
2022-10-23T03:03:51.818Z,99123.56
2022-10-23T03:06:21.172Z,99119.41
2022-10-23T03:08:54.825Z,99124.38
2022-10-23T03:11:26.919Z,99126.13
2022-10-23T03:13:57.818Z,99122.47
2022-10-23T03:16:26.883Z,99125.03
2022-10-23T03:18:58.202Z,99127.94
2022-10-23T03:21:27.062Z,99121.78
2022-10-23T03:23:55.769Z,99121.25
2022-10-23T03:26:33.121Z,99117.19
2022-10-23T03:29:02.003Z,99117.41
2022-10-23T03:31:30.665Z,99111.22
2022-10-23T03:34:04.148Z,99111.69
2022-10-23T03:36:36.112Z,99110.97
2022-10-23T03:39:05.865Z,99110.97
2022-10-23T03:41:34.579Z,99113.03
2022-10-23T03:46:36.832Z,99126.66
2022-10-23T03:49:07.736Z,99114.69
2022-10-23T03:51:36.916Z,99109.34
2022-10-23T03:54:06.199Z,99110.97
2022-10-23T03:56:35.134Z,99116.66
2022-10-23T03:59:03.975Z,99116.00
2022-10-23T04:01:32.769Z,99131.91
2022-10-23T04:04:01.549Z,99126.78
2022-10-23T04:06:32.539Z,99120.03
2022-10-23T04:09:01.455Z,99117.03
2022-10-23T04:11:30.104Z,99106.00
2022-10-23T04:13:58.720Z,99120.09
2022-10-23T04:16:27.687Z,99111.38
2022-10-23T04:18:56.338Z,99102.19
2022-10-23T04:21:25.046Z,99107.53
2022-10-23T04:23:55.166Z,99104.72
2022-10-23T04:26:24.682Z,99116.47
2022-10-23T04:28:53.505Z,99117.94
2022-10-23T04:31:22.134Z,99119.00
2022-10-23T04:33:51.382Z,99117.84
2022-10-23T04:36:31.626Z,99115.66
2022-10-23T04:39:11.639Z,99114.19
2022-10-23T04:41:40.378Z,99110.47
2022-10-23T04:44:12.398Z,99105.53
2022-10-23T04:46:41.058Z,99104.47
2022-10-23T04:49:11.493Z,99106.78
2022-10-23T04:51:48.884Z,99109.34
2022-10-23T04:54:41.583Z,99115.59
2022-10-23T04:57:32.713Z,99114.19
2022-10-23T05:00:09.740Z,99118.38
2022-10-23T05:02:58.738Z,99111.69
2022-10-23T05:05:33.964Z,99107.69
2022-10-23T05:08:29.039Z,99112.94
2022-10-23T05:11:08.411Z,99119.19
2022-10-23T05:13:42.732Z,99122.09
2022-10-23T05:16:13.895Z,99113.59
2022-10-23T05:18:48.909Z,99110.00
2022-10-23T05:21:25.979Z,99106.53
2022-10-23T05:23:56.568Z,99106.06
2022-10-23T05:26:27.049Z,99109.50
2022-10-23T05:28:56.044Z,99115.16
2022-10-23T05:31:27.042Z,99107.38
2022-10-23T05:34:01.950Z,99103.16
2022-10-23T05:36:32.330Z,99103.22
2022-10-23T05:39:03.651Z,99107.97
2022-10-23T05:41:35.322Z,99100.75
2022-10-23T05:44:04.906Z,99092.06
2022-10-23T05:46:52.081Z,99091.25
2022-10-23T05:49:39.831Z,99094.09
2022-10-23T05:52:27.554Z,99088.34
2022-10-23T05:55:22.064Z,99089.63
2022-10-23T05:58:15.633Z,99101.66
2022-10-23T06:01:18.654Z,99101.66
2022-10-23T06:04:03.013Z,99100.03
2022-10-23T06:06:51.012Z,99097.34
2022-10-23T06:09:20.146Z,99099.13
2022-10-23T06:11:49.654Z,99096.97
2022-10-23T06:14:24.357Z,99094.00
2022-10-23T06:16:54.107Z,99093.19
2022-10-23T06:19:24.742Z,99089.56
2022-10-23T06:21:56.801Z,99096.97
2022-10-23T06:24:36.490Z,99095.13
2022-10-23T06:27:09.287Z,99095.13
2022-10-23T06:29:47.222Z,99095.34
2022-10-23T06:32:17.097Z,99101.06
2022-10-23T06:34:53.410Z,99102.75
2022-10-23T06:37:22.734Z,99107.44
2022-10-23T06:39:57.771Z,99107.06
2022-10-23T06:42:36.781Z,99115.13
2022-10-23T06:45:35.278Z,99107.25
2022-10-23T06:48:24.737Z,99105.63
2022-10-23T06:51:08.624Z,99108.88
2022-10-23T06:53:46.830Z,99105.44
2022-10-23T06:56:39.645Z,99110.22
2022-10-23T06:59:11.369Z,99106.72
2022-10-23T07:01:46.267Z,99103.75
2022-10-23T07:04:18.537Z,99110.06
2022-10-23T07:06:47.908Z,99106.22
2022-10-23T07:09:19.257Z,99114.41
2022-10-23T07:11:54.756Z,99116.63
2022-10-23T07:14:32.463Z,99113.84
2022-10-23T07:17:05.205Z,99108.84
2022-10-23T07:19:35.968Z,99100.94
2022-10-23T07:22:13.423Z,99111.31
2022-10-23T07:24:57.215Z,99107.38
2022-10-23T07:27:38.742Z,99113.44
2022-10-23T07:30:12.645Z,99111.69
2022-10-23T07:32:54.595Z,99103.78
2022-10-23T07:35:41.984Z,99100.97
2022-10-23T07:38:17.931Z,99098.19
2022-10-23T07:40:53.921Z,99100.50
2022-10-23T07:43:25.682Z,99095.81
2022-10-23T07:45:55.794Z,99096.31
2022-10-23T07:48:37.413Z,99089.50
2022-10-23T07:51:11.021Z,99099.03
2022-10-23T07:53:49.524Z,99091.34
2022-10-23T07:56:35.605Z,99093.34
2022-10-23T07:59:16.074Z,99093.66
2022-10-23T08:01:53.861Z,99091.69
2022-10-23T08:04:28.081Z,99093.16
2022-10-23T08:07:01.860Z,99098.16
2022-10-23T08:09:38.171Z,99102.31
2022-10-23T08:12:07.765Z,99103.22
2022-10-23T08:14:43.395Z,99104.78
2022-10-23T08:17:59.337Z,99091.19
2022-10-23T08:20:52.498Z,99091.97
2022-10-23T08:23:21.685Z,99083.50
2022-10-23T08:25:50.782Z,99082.06
2022-10-23T08:28:19.984Z,99078.72
2022-10-23T08:30:57.313Z,99079.38
2022-10-23T08:33:26.980Z,99080.84
2022-10-23T08:35:57.046Z,99084.03
2022-10-23T08:38:31.911Z,99090.13
2022-10-23T08:41:02.893Z,99077.41
2022-10-23T08:44:08.682Z,99080.63
2022-10-23T08:46:48.458Z,99071.81
2022-10-23T08:49:47.497Z,99062.09
2022-10-23T08:52:29.040Z,99069.91
2022-10-23T08:55:18.503Z,99069.66
2022-10-23T08:58:05.061Z,99053.41
2022-10-23T09:00:35.274Z,99047.06
2022-10-23T09:03:06.994Z,99042.56
2022-10-23T09:05:56.603Z,99049.69
2022-10-23T09:08:53.369Z,99058.91
2022-10-23T09:11:34.020Z,99054.47
2022-10-23T09:14:27.904Z,99046.25
2022-10-23T09:19:51.719Z,99028.34
2022-10-23T09:22:20.433Z,99037.06
2022-10-23T09:24:53.740Z,99041.69
2022-10-23T09:27:22.874Z,99041.16
2022-10-23T09:29:55.568Z,99042.53
2022-10-23T09:32:36.208Z,99038.44
2022-10-23T09:35:07.597Z,99043.56
2022-10-23T09:37:37.603Z,99039.22
2022-10-23T09:40:19.947Z,99041.31
2022-10-23T09:42:55.103Z,99033.91
2022-10-23T09:45:28.538Z,99038.75
2022-10-23T09:48:13.279Z,99040.31
2022-10-23T09:51:01.295Z,99040.06
2022-10-23T09:53:39.669Z,99032.78
2022-10-23T09:56:28.011Z,99031.00
2022-10-23T09:59:00.553Z,99029.41
2022-10-23T10:01:32.864Z,99027.06
2022-10-23T10:04:39.127Z,99036.00
2022-10-23T10:07:21.040Z,99040.63
2022-10-23T10:09:50.766Z,99038.19
2022-10-23T10:12:44.244Z,99039.84
2022-10-23T10:15:23.952Z,99045.22
2022-10-23T10:18:14.256Z,99036.03
2022-10-23T10:21:00.068Z,99034.69
2022-10-23T10:23:39.057Z,99030.66
2022-10-23T10:26:27.755Z,99030.06
2022-10-23T10:29:11.984Z,99030.06
2022-10-23T10:32:01.639Z,99030.88
2022-10-23T10:34:40.749Z,99016.56
2022-10-23T10:37:27.401Z,99012.25
2022-10-23T10:40:10.467Z,99006.84
2022-10-23T10:43:15.592Z,99003.88
2022-10-23T10:45:49.948Z,98997.94
2022-10-23T10:48:42.254Z,98995.53
2022-10-23T10:51:48.595Z,98981.44
2022-10-23T10:54:37.132Z,98993.88
2022-10-23T10:57:28.560Z,98984.19
2022-10-23T11:00:04.875Z,98984.72
2022-10-23T11:02:43.990Z,98980.94
2022-10-23T11:05:26.676Z,98980.66
2022-10-23T11:08:00.927Z,98986.88
2022-10-23T11:10:31.080Z,98983.59
2022-10-23T11:12:59.922Z,98983.09
2022-10-23T11:15:37.766Z,98980.91
2022-10-23T11:18:19.580Z,98968.75
2022-10-23T11:21:08.578Z,98964.69
2022-10-23T11:24:20.947Z,98949.56
2022-10-23T11:27:11.543Z,98944.97
2022-10-23T11:30:18.820Z,98943.59
2022-10-23T11:33:30.519Z,98939.28
2022-10-23T11:36:17.225Z,98941.44
2022-10-23T11:38:50.278Z,98939.03
2022-10-23T11:41:26.452Z,98933.63
2022-10-23T11:44:01.691Z,98927.94
2022-10-23T11:46:37.322Z,98927.94
2022-10-23T11:49:21.955Z,98921.72
2022-10-23T11:52:02.634Z,98929.03
2022-10-23T11:54:31.641Z,98924.72
2022-10-23T11:57:14.239Z,98919.84
2022-10-23T11:59:54.846Z,98929.59
2022-10-23T12:02:33.619Z,98923.38
2022-10-23T12:05:08.522Z,98926.34
2022-10-23T12:07:41.955Z,98915.28
2022-10-23T12:10:28.840Z,98923.38
2022-10-23T12:13:00.854Z,98909.59
2022-10-23T12:15:29.970Z,98905.00
2022-10-23T12:18:15.946Z,98903.63
2022-10-23T12:20:53.964Z,98904.72
2022-10-23T12:23:53.800Z,98896.06
2022-10-23T12:26:54.624Z,98891.19
2022-10-23T12:29:43.010Z,98894.44
2022-10-23T12:32:32.278Z,98886.88
2022-10-23T12:35:47.752Z,98876.59
2022-10-23T12:38:21.338Z,98866.88
2022-10-23T12:40:55.922Z,98863.63
2022-10-23T12:43:31.752Z,98859.28
2022-10-23T12:46:06.828Z,98856.59
2022-10-23T12:48:35.936Z,98857.09
2022-10-23T12:51:04.857Z,98852.28
2022-10-23T12:53:34.880Z,98843.34
2022-10-23T12:56:06.855Z,98838.19
2022-10-23T12:58:38.156Z,98847.34
2022-10-23T13:01:09.042Z,98848.44
2022-10-23T13:03:39.842Z,98843.56
2022-10-23T13:06:11.431Z,98846.75
2022-10-23T13:08:46.013Z,98837.53
2022-10-23T13:11:38.058Z,98835.91
2022-10-23T13:14:14.231Z,98832.66
2022-10-23T13:16:42.893Z,98822.91
2022-10-23T13:19:26.098Z,98827.78
2022-10-23T13:21:55.071Z,98822.38
2022-10-23T13:24:28.742Z,98815.91
2022-10-23T13:26:58.968Z,98827.78
2022-10-23T13:29:32.314Z,98818.31
2022-10-23T13:32:12.257Z,98811.56
2022-10-23T13:34:40.956Z,98819.41
2022-10-23T13:37:25.553Z,98817.78
2022-10-23T13:40:10.245Z,98820.78
2022-10-23T13:42:38.970Z,98821.84
2022-10-23T13:45:19.740Z,98821.31
2022-10-23T13:47:48.610Z,98804.88
2022-10-23T13:50:17.624Z,98811.63
2022-10-23T13:52:46.952Z,98812.22
2022-10-23T13:55:24.882Z,98817.06
2022-10-23T13:57:53.963Z,98809.81
2022-10-23T14:00:22.810Z,98812.22
2022-10-23T14:02:51.519Z,98805.22
2022-10-23T14:05:20.600Z,98796.59
2022-10-23T14:07:49.236Z,98800.41
2022-10-23T14:10:22.524Z,98792.53
2022-10-23T14:12:55.003Z,98791.22
2022-10-23T14:15:26.041Z,98789.03
2022-10-23T14:17:59.040Z,98795.81
2022-10-23T14:20:44.286Z,98786.66
2022-10-23T14:23:14.532Z,98781.53
2022-10-23T14:25:45.601Z,98780.50
2022-10-23T14:28:14.943Z,98784.00
2022-10-23T14:30:44.529Z,98774.81
2022-10-23T14:33:15.084Z,98778.34
2022-10-23T14:35:44.122Z,98773.22
2022-10-23T14:38:13.574Z,98778.91
2022-10-23T14:40:44.213Z,98778.38
2022-10-23T14:43:13.776Z,98774.59
2022-10-23T14:45:42.614Z,98777.84
2022-10-23T14:48:11.835Z,98768.94
2022-10-23T14:50:47.605Z,98770.03
2022-10-23T14:53:17.994Z,98765.16
2022-10-23T14:55:48.091Z,98760.84
2022-10-23T14:58:17.631Z,98758.94
2022-10-23T15:00:58.105Z,98749.25
2022-10-23T15:03:28.299Z,98742.75
2022-10-23T15:05:58.519Z,98739.25
2022-10-23T15:08:29.281Z,98746.00
2022-10-23T15:11:04.227Z,98743.03
2022-10-23T15:13:35.922Z,98738.72
2022-10-23T15:16:11.802Z,98735.75
2022-10-23T15:18:40.518Z,98734.69
2022-10-23T15:21:10.785Z,98728.22
2022-10-23T15:23:42.310Z,98737.91
2022-10-23T15:26:20.201Z,98741.69
2022-10-23T15:28:55.814Z,98734.69
2022-10-23T15:31:54.915Z,98729.84
2022-10-23T15:34:26.523Z,98724.97
2022-10-23T15:36:57.763Z,98724.97
2022-10-23T15:39:35.569Z,98719.59
2022-10-23T15:42:08.019Z,98723.91
2022-10-23T15:44:38.569Z,98728.75
2022-10-23T15:47:07.976Z,98727.94
2022-10-23T15:49:38.820Z,98747.63
2022-10-23T15:54:39.146Z,98720.41
2022-10-23T15:57:09.666Z,98722.53
2022-10-23T15:59:39.955Z,98718.50
2022-10-23T16:02:09.049Z,98722.28
2022-10-23T16:04:37.715Z,98727.94
2022-10-23T16:07:07.280Z,98716.59
2022-10-23T16:09:36.985Z,98707.19
2022-10-23T16:12:06.352Z,98714.19
2022-10-23T16:14:36.364Z,98714.47
2022-10-23T16:17:05.257Z,98711.50
2022-10-23T16:19:35.393Z,98709.84
2022-10-23T16:22:04.826Z,98703.94
2022-10-23T16:24:34.381Z,98710.13
2022-10-23T16:27:03.004Z,98701.25
2022-10-23T16:29:32.390Z,98696.91
2022-10-23T16:32:16.081Z,98684.00
2022-10-23T16:34:45.555Z,98691.00
2022-10-23T16:37:14.217Z,98684.25
2022-10-23T16:40:11.082Z,98685.31
2022-10-23T16:43:06.602Z,98682.09
2022-10-23T16:45:41.196Z,98682.56
2022-10-23T16:48:11.335Z,98679.63
2022-10-23T16:50:41.231Z,98681.78
2022-10-23T16:53:10.294Z,98686.34
2022-10-23T16:55:42.389Z,98684.16
2022-10-23T16:58:12.897Z,98678.00
2022-10-23T17:00:43.550Z,98682.56
2022-10-23T17:03:14.810Z,98680.13
2022-10-23T17:05:45.046Z,98671.00
2022-10-23T17:08:15.093Z,98668.28
2022-10-23T17:10:44.722Z,98667.50
2022-10-23T17:13:14.375Z,98665.03
2022-10-23T17:15:45.443Z,98667.19
2022-10-23T17:18:15.963Z,98658.56
2022-10-23T17:20:45.425Z,98660.16
2022-10-23T17:23:14.597Z,98662.84
2022-10-23T17:25:44.651Z,98664.47
2022-10-23T17:28:14.129Z,98657.44
2022-10-23T17:30:44.480Z,98658.03
2022-10-23T17:33:15.488Z,98656.91
2022-10-23T17:35:45.618Z,98655.56
2022-10-23T17:38:18.395Z,98651.78
2022-10-23T17:40:48.913Z,98649.91
2022-10-23T17:43:17.608Z,98639.13
2022-10-23T17:45:46.367Z,98633.72
2022-10-23T17:48:17.407Z,98622.94
2022-10-23T17:50:46.333Z,98620.50
2022-10-23T17:53:15.831Z,98617.00
2022-10-23T17:55:45.328Z,98628.31
2022-10-23T17:58:14.385Z,98621.84
2022-10-23T18:00:43.941Z,98613.47
2022-10-23T18:03:15.488Z,98614.50
2022-10-23T18:05:50.183Z,98611.00
2022-10-23T18:08:19.163Z,98612.63
2022-10-23T18:10:48.295Z,98613.63
2022-10-23T18:13:18.060Z,98613.09
2022-10-23T18:15:47.252Z,98607.72
2022-10-23T18:18:17.877Z,98612.50
2022-10-23T18:20:51.614Z,98602.75
2022-10-23T18:23:20.773Z,98603.56
2022-10-23T18:25:50.037Z,98592.03
2022-10-23T18:28:20.086Z,98591.50
2022-10-23T18:30:51.174Z,98577.22
2022-10-23T18:33:24.824Z,98571.84
2022-10-23T18:35:57.181Z,98581.78
2022-10-23T18:38:26.638Z,98574.72
2022-10-23T18:40:56.999Z,98580.38
2022-10-23T18:43:42.456Z,98569.91
2022-10-23T18:46:13.595Z,98560.28
2022-10-23T18:48:45.703Z,98545.75
2022-10-23T18:51:20.362Z,98544.13
2022-10-23T18:53:50.531Z,98535.53
2022-10-23T18:56:26.901Z,98534.41
2022-10-23T18:58:58.322Z,98532.47
2022-10-23T19:01:31.680Z,98531.16
2022-10-23T19:04:03.427Z,98540.81
2022-10-23T19:06:37.454Z,98548.63
2022-10-23T19:09:10.486Z,98552.19
2022-10-23T19:11:40.711Z,98555.44
2022-10-23T19:14:10.535Z,98547.66
2022-10-23T19:16:46.115Z,98550.88
2022-10-23T19:19:21.850Z,98546.59
2022-10-23T19:21:54.542Z,98537.19
2022-10-23T19:24:30.553Z,98532.38
2022-10-23T19:27:03.476Z,98526.44
2022-10-23T19:29:35.289Z,98527.53
2022-10-23T19:32:04.862Z,98524.28
2022-10-23T19:34:36.303Z,98521.63
2022-10-23T19:37:07.364Z,98526.44
2022-10-23T19:39:36.497Z,98524.31
2022-10-23T19:42:06.137Z,98516.78
2022-10-23T19:44:35.133Z,98507.63
2022-10-23T19:47:05.181Z,98497.41
2022-10-23T19:49:34.115Z,98491.50
2022-10-23T19:52:06.415Z,98493.09
2022-10-23T19:54:36.022Z,98481.81
2022-10-23T19:57:06.233Z,98482.63
2022-10-23T19:59:35.216Z,98478.31
2022-10-23T20:02:04.037Z,98475.34
2022-10-23T20:04:33.831Z,98472.13
2022-10-23T20:07:03.149Z,98464.59
2022-10-23T20:09:34.320Z,98460.31
2022-10-23T20:12:03.869Z,98462.44
2022-10-23T20:14:33.919Z,98455.44
2022-10-23T20:17:03.122Z,98458.69
2022-10-23T20:19:32.208Z,98461.66
2022-10-23T20:22:01.851Z,98458.69
2022-10-23T20:24:32.695Z,98455.75
2022-10-23T20:27:02.049Z,98449.28
2022-10-23T20:29:31.052Z,98451.69
2022-10-23T20:32:00.370Z,98445.78
2022-10-23T20:34:29.260Z,98450.09
2022-10-23T20:36:58.048Z,98449.00
2022-10-23T20:39:27.009Z,98448.22
2022-10-23T20:41:58.225Z,98444.97
2022-10-23T20:44:26.929Z,98456.56
2022-10-23T20:46:55.954Z,98464.09
2022-10-23T20:49:25.379Z,98461.94
2022-10-23T20:51:56.307Z,98465.44
2022-10-23T20:54:27.662Z,98481.59
2022-10-23T20:56:58.929Z,98482.41
2022-10-23T20:59:27.690Z,98479.16
2022-10-23T21:01:57.598Z,98473.78
2022-10-23T21:04:28.945Z,98476.47
2022-10-23T21:07:16.479Z,98473.78
2022-10-23T21:09:45.397Z,98483.75
2022-10-23T21:12:15.539Z,98499.09
2022-10-23T21:14:44.204Z,98515.78
2022-10-23T21:17:16.960Z,98522.78
2022-10-23T21:19:45.771Z,98532.75
2022-10-23T21:22:14.545Z,98533.56
2022-10-23T21:24:43.105Z,98548.13
2022-10-23T21:27:11.677Z,98570.19
2022-10-23T21:29:41.782Z,98590.63
2022-10-23T21:32:10.366Z,98593.63
2022-10-23T21:34:39.169Z,98612.16
2022-10-23T21:37:12.901Z,98614.34
2022-10-23T21:39:43.169Z,98629.97
2022-10-23T21:42:12.279Z,98652.03
2022-10-23T21:44:42.663Z,98651.50
2022-10-23T21:47:11.528Z,98645.59
2022-10-23T21:49:40.167Z,98648.81
2022-10-23T21:52:08.840Z,98632.16
2022-10-23T21:54:38.030Z,98672.00
2022-10-23T21:57:06.771Z,98663.91
2022-10-23T21:59:36.283Z,98663.66
2022-10-23T22:02:06.482Z,98661.75
2022-10-23T22:04:35.438Z,98672.53
2022-10-23T22:07:04.699Z,98676.03
2022-10-23T22:09:35.106Z,98685.47
2022-10-23T22:12:05.247Z,98676.84
2022-10-23T22:14:33.898Z,98683.56
2022-10-23T22:17:02.488Z,98671.72
2022-10-23T22:19:33.016Z,98668.22
2022-10-23T22:22:01.646Z,98665.53
2022-10-23T22:24:30.352Z,98659.31
2022-10-23T22:26:59.045Z,98638.59
2022-10-23T22:29:30.984Z,98627.56
2022-10-23T22:31:59.732Z,98624.31
2022-10-23T22:34:51.700Z,98632.66
2022-10-23T22:37:20.198Z,98629.97
2022-10-23T22:39:52.299Z,98616.25
2022-10-23T22:42:21.836Z,98615.41
2022-10-23T22:44:50.478Z,98610.88
2022-10-23T22:47:19.071Z,98613.81
2022-10-23T22:49:49.101Z,98605.19
2022-10-23T22:52:17.799Z,98619.72
2022-10-23T22:54:46.447Z,98617.84
2022-10-23T22:57:15.150Z,98612.72
2022-10-23T22:59:43.760Z,98611.38
2022-10-23T23:02:12.384Z,98605.69
2022-10-23T23:04:40.991Z,98621.63
2022-10-23T23:07:13.753Z,98625.13
2022-10-23T23:09:45.121Z,98618.13
2022-10-23T23:12:15.382Z,98619.41
2022-10-23T23:14:44.635Z,98615.69
2022-10-23T23:17:13.574Z,98613.78
2022-10-23T23:19:42.186Z,98608.41
2022-10-23T23:22:12.226Z,98598.44
2022-10-23T23:24:44.632Z,98605.97
2022-10-23T23:27:13.296Z,98607.81
2022-10-23T23:29:41.863Z,98606.22
2022-10-23T23:32:11.853Z,98602.44
2022-10-23T23:34:40.527Z,98609.94
2022-10-23T23:37:09.218Z,98612.63
2022-10-23T23:39:39.355Z,98604.28
2022-10-23T23:42:08.209Z,98597.00
2022-10-23T23:44:42.066Z,98597.53
2022-10-23T23:47:19.068Z,98587.06
2022-10-23T23:49:47.753Z,98582.47
2022-10-23T23:52:16.384Z,98583.50
2022-10-23T23:54:46.489Z,98584.56
2022-10-23T23:57:15.272Z,98585.31
2022-10-23T23:59:43.883Z,98583.41
